sensor_id;sensor_type;location;lat;lon;timestamp;temperature;humidity
48836;DHT22;62581;47.342;7.908;2022-08-02T00:00:00;23.60;99.90
48836;DHT22;62581;47.342;7.908;2022-08-02T00:02:27;23.60;99.90
48836;DHT22;62581;47.342;7.908;2022-08-02T00:04:54;23.50;99.90
48836;DHT22;62581;47.342;7.908;2022-08-02T00:07:22;23.50;99.90
48836;DHT22;62581;47.342;7.908;2022-08-02T00:09:49;23.40;99.90
48836;DHT22;62581;47.342;7.908;2022-08-02T00:12:16;23.30;99.90
48836;DHT22;62581;47.342;7.908;2022-08-02T00:14:43;23.30;99.90
48836;DHT22;62581;47.342;7.908;2022-08-02T00:17:10;23.20;99.90
48836;DHT22;62581;47.342;7.908;2022-08-02T00:19:37;23.10;99.90
48836;DHT22;62581;47.342;7.908;2022-08-02T00:22:04;23.10;99.90
48836;DHT22;62581;47.342;7.908;2022-08-02T00:24:32;23.10;99.90
48836;DHT22;62581;47.342;7.908;2022-08-02T00:26:59;23.00;99.90
48836;DHT22;62581;47.342;7.908;2022-08-02T00:29:28;22.90;99.90
48836;DHT22;62581;47.342;7.908;2022-08-02T00:31:55;22.90;99.90
48836;DHT22;62581;47.342;7.908;2022-08-02T00:34:22;22.80;99.90
48836;DHT22;62581;47.342;7.908;2022-08-02T00:36:49;22.90;99.90
48836;DHT22;62581;47.342;7.908;2022-08-02T00:39:16;22.80;99.90
48836;DHT22;62581;47.342;7.908;2022-08-02T00:41:48;22.70;99.90
48836;DHT22;62581;47.342;7.908;2022-08-02T00:44:16;22.70;99.90
48836;DHT22;62581;47.342;7.908;2022-08-02T00:46:43;22.60;99.90
48836;DHT22;62581;47.342;7.908;2022-08-02T00:49:11;22.60;99.90
48836;DHT22;62581;47.342;7.908;2022-08-02T00:51:40;22.60;99.90
48836;DHT22;62581;47.342;7.908;2022-08-02T00:54:07;22.60;99.90
48836;DHT22;62581;47.342;7.908;2022-08-02T00:56:34;22.50;99.90
48836;DHT22;62581;47.342;7.908;2022-08-02T00:59:03;22.50;99.90
48836;DHT22;62581;47.342;7.908;2022-08-02T01:01:30;22.40;99.90
48836;DHT22;62581;47.342;7.908;2022-08-02T01:04:07;22.40;99.90
48836;DHT22;62581;47.342;7.908;2022-08-02T01:06:35;22.30;99.90
48836;DHT22;62581;47.342;7.908;2022-08-02T01:09:04;22.30;99.90
48836;DHT22;62581;47.342;7.908;2022-08-02T01:11:32;22.30;99.90
48836;DHT22;62581;47.342;7.908;2022-08-02T01:14:01;22.20;99.90
48836;DHT22;62581;47.342;7.908;2022-08-02T01:16:35;22.20;99.90
48836;DHT22;62581;47.342;7.908;2022-08-02T01:19:14;22.10;99.90
48836;DHT22;62581;47.342;7.908;2022-08-02T01:21:59;22.10;99.90
48836;DHT22;62581;47.342;7.908;2022-08-02T01:24:54;22.10;99.90
48836;DHT22;62581;47.342;7.908;2022-08-02T01:27:33;22.00;99.90
48836;DHT22;62581;47.342;7.908;2022-08-02T01:30:04;22.00;99.90
48836;DHT22;62581;47.342;7.908;2022-08-02T01:32:36;22.00;99.90
48836;DHT22;62581;47.342;7.908;2022-08-02T01:35:10;21.90;99.90
48836;DHT22;62581;47.342;7.908;2022-08-02T01:37:43;21.90;99.90
48836;DHT22;62581;47.342;7.908;2022-08-02T01:40:19;21.90;99.90
48836;DHT22;62581;47.342;7.908;2022-08-02T01:42:51;21.80;99.90
48836;DHT22;62581;47.342;7.908;2022-08-02T01:45:21;21.80;99.90
48836;DHT22;62581;47.342;7.908;2022-08-02T01:47:51;21.80;99.90
48836;DHT22;62581;47.342;7.908;2022-08-02T01:50:20;21.70;99.90
48836;DHT22;62581;47.342;7.908;2022-08-02T01:52:50;21.70;99.90
48836;DHT22;62581;47.342;7.908;2022-08-02T01:55:21;21.60;99.90
48836;DHT22;62581;47.342;7.908;2022-08-02T01:57:50;21.60;99.90
48836;DHT22;62581;47.342;7.908;2022-08-02T02:00:21;21.60;99.90
48836;DHT22;62581;47.342;7.908;2022-08-02T02:02:52;21.60;99.90
48836;DHT22;62581;47.342;7.908;2022-08-02T02:05:20;21.60;99.90
48836;DHT22;62581;47.342;7.908;2022-08-02T02:07:51;21.50;99.90
48836;DHT22;62581;47.342;7.908;2022-08-02T02:10:23;21.50;99.90
48836;DHT22;62581;47.342;7.908;2022-08-02T02:12:52;21.50;99.90
48836;DHT22;62581;47.342;7.908;2022-08-02T02:15:22;21.50;99.90
48836;DHT22;62581;47.342;7.908;2022-08-02T02:17:52;21.50;99.90
48836;DHT22;62581;47.342;7.908;2022-08-02T02:20:20;21.50;99.90
48836;DHT22;62581;47.342;7.908;2022-08-02T02:22:47;21.40;99.90
48836;DHT22;62581;47.342;7.908;2022-08-02T02:25:16;21.40;99.90
48836;DHT22;62581;47.342;7.908;2022-08-02T02:27:49;21.30;99.90
48836;DHT22;62581;47.342;7.908;2022-08-02T02:30:18;21.30;99.90
48836;DHT22;62581;47.342;7.908;2022-08-02T02:32:47;21.30;99.90
48836;DHT22;62581;47.342;7.908;2022-08-02T02:35:17;21.20;99.90
48836;DHT22;62581;47.342;7.908;2022-08-02T02:37:47;21.20;99.90
48836;DHT22;62581;47.342;7.908;2022-08-02T02:40:16;21.20;99.90
48836;DHT22;62581;47.342;7.908;2022-08-02T02:42:44;21.20;99.90
48836;DHT22;62581;47.342;7.908;2022-08-02T02:45:11;21.20;99.90
48836;DHT22;62581;47.342;7.908;2022-08-02T02:47:39;21.10;99.90
48836;DHT22;62581;47.342;7.908;2022-08-02T02:50:08;21.10;99.90
48836;DHT22;62581;47.342;7.908;2022-08-02T02:52:37;21.10;99.90
48836;DHT22;62581;47.342;7.908;2022-08-02T02:55:06;21.10;99.90
48836;DHT22;62581;47.342;7.908;2022-08-02T02:57:35;21.00;99.90
48836;DHT22;62581;47.342;7.908;2022-08-02T03:00:03;21.00;99.90
48836;DHT22;62581;47.342;7.908;2022-08-02T03:02:30;20.90;99.90
48836;DHT22;62581;47.342;7.908;2022-08-02T03:04:59;20.90;99.90
48836;DHT22;62581;47.342;7.908;2022-08-02T03:07:28;20.90;99.90
48836;DHT22;62581;47.342;7.908;2022-08-02T03:09:58;20.90;99.90
48836;DHT22;62581;47.342;7.908;2022-08-02T03:12:25;20.90;99.90
48836;DHT22;62581;47.342;7.908;2022-08-02T03:14:53;20.80;99.90
48836;DHT22;62581;47.342;7.908;2022-08-02T03:17:20;20.80;99.90
48836;DHT22;62581;47.342;7.908;2022-08-02T03:19:47;20.80;99.90
48836;DHT22;62581;47.342;7.908;2022-08-02T03:22:14;20.80;99.90
48836;DHT22;62581;47.342;7.908;2022-08-02T03:24:43;20.80;99.90
48836;DHT22;62581;47.342;7.908;2022-08-02T03:27:10;20.70;99.90
48836;DHT22;62581;47.342;7.908;2022-08-02T03:29:37;20.70;99.90
48836;DHT22;62581;47.342;7.908;2022-08-02T03:32:04;20.70;99.90
48836;DHT22;62581;47.342;7.908;2022-08-02T03:34:31;20.60;99.90
48836;DHT22;62581;47.342;7.908;2022-08-02T03:36:59;20.60;99.90
48836;DHT22;62581;47.342;7.908;2022-08-02T03:39:27;20.60;99.90
48836;DHT22;62581;47.342;7.908;2022-08-02T03:41:56;20.60;99.90
48836;DHT22;62581;47.342;7.908;2022-08-02T03:44:23;20.60;99.90
48836;DHT22;62581;47.342;7.908;2022-08-02T03:46:51;20.50;99.90
48836;DHT22;62581;47.342;7.908;2022-08-02T03:49:19;20.50;99.90
48836;DHT22;62581;47.342;7.908;2022-08-02T03:51:47;20.50;99.90
48836;DHT22;62581;47.342;7.908;2022-08-02T03:54:16;20.40;99.90
48836;DHT22;62581;47.342;7.908;2022-08-02T03:56:43;20.40;99.90
48836;DHT22;62581;47.342;7.908;2022-08-02T03:59:13;20.40;99.90
48836;DHT22;62581;47.342;7.908;2022-08-02T04:01:40;20.40;99.90
48836;DHT22;62581;47.342;7.908;2022-08-02T04:04:07;20.40;99.90
48836;DHT22;62581;47.342;7.908;2022-08-02T04:06:34;20.40;99.90
48836;DHT22;62581;47.342;7.908;2022-08-02T04:09:02;20.40;99.90
48836;DHT22;62581;47.342;7.908;2022-08-02T04:11:29;20.40;99.90
48836;DHT22;62581;47.342;7.908;2022-08-02T04:14:00;20.40;99.90
48836;DHT22;62581;47.342;7.908;2022-08-02T04:16:36;20.40;99.90
48836;DHT22;62581;47.342;7.908;2022-08-02T04:19:08;20.30;99.90
48836;DHT22;62581;47.342;7.908;2022-08-02T04:21:39;20.30;99.90
48836;DHT22;62581;47.342;7.908;2022-08-02T04:24:08;20.30;99.90
48836;DHT22;62581;47.342;7.908;2022-08-02T04:26:36;20.40;99.90
48836;DHT22;62581;47.342;7.908;2022-08-02T04:29:04;20.40;99.90
48836;DHT22;62581;47.342;7.908;2022-08-02T04:31:34;20.40;99.90
48836;DHT22;62581;47.342;7.908;2022-08-02T04:34:01;20.40;99.90
48836;DHT22;62581;47.342;7.908;2022-08-02T04:36:28;20.40;99.90
48836;DHT22;62581;47.342;7.908;2022-08-02T04:38:55;20.50;99.90
48836;DHT22;62581;47.342;7.908;2022-08-02T04:41:22;20.50;99.90
48836;DHT22;62581;47.342;7.908;2022-08-02T04:44:02;20.50;99.90
48836;DHT22;62581;47.342;7.908;2022-08-02T04:46:29;20.50;99.90
48836;DHT22;62581;47.342;7.908;2022-08-02T04:48:57;20.60;99.90
48836;DHT22;62581;47.342;7.908;2022-08-02T04:51:24;20.60;99.90
48836;DHT22;62581;47.342;7.908;2022-08-02T04:53:51;20.70;99.90
48836;DHT22;62581;47.342;7.908;2022-08-02T04:56:18;20.70;99.90
48836;DHT22;62581;47.342;7.908;2022-08-02T04:58:45;20.70;99.90
48836;DHT22;62581;47.342;7.908;2022-08-02T05:01:12;20.70;99.90
48836;DHT22;62581;47.342;7.908;2022-08-02T05:03:39;20.80;99.90
48836;DHT22;62581;47.342;7.908;2022-08-02T05:06:07;20.80;99.90
48836;DHT22;62581;47.342;7.908;2022-08-02T05:08:34;20.90;99.90
48836;DHT22;62581;47.342;7.908;2022-08-02T05:11:01;20.90;99.90
48836;DHT22;62581;47.342;7.908;2022-08-02T05:13:28;21.00;99.90
48836;DHT22;62581;47.342;7.908;2022-08-02T05:15:54;21.10;99.90
48836;DHT22;62581;47.342;7.908;2022-08-02T05:18:23;21.10;99.90
48836;DHT22;62581;47.342;7.908;2022-08-02T05:20:50;21.10;99.90
48836;DHT22;62581;47.342;7.908;2022-08-02T05:23:18;21.20;99.90
48836;DHT22;62581;47.342;7.908;2022-08-02T05:25:45;21.30;99.90
48836;DHT22;62581;47.342;7.908;2022-08-02T05:28:12;21.30;99.90
48836;DHT22;62581;47.342;7.908;2022-08-02T05:30:39;21.30;99.90
48836;DHT22;62581;47.342;7.908;2022-08-02T05:33:06;21.40;99.90
48836;DHT22;62581;47.342;7.908;2022-08-02T05:35:33;21.40;99.90
48836;DHT22;62581;47.342;7.908;2022-08-02T05:38:00;21.40;99.90
48836;DHT22;62581;47.342;7.908;2022-08-02T05:40:29;21.50;99.90
48836;DHT22;62581;47.342;7.908;2022-08-02T05:42:56;21.50;99.90
48836;DHT22;62581;47.342;7.908;2022-08-02T05:45:23;21.50;99.90
48836;DHT22;62581;47.342;7.908;2022-08-02T05:47:50;21.60;99.90
48836;DHT22;62581;47.342;7.908;2022-08-02T05:50:18;21.60;99.90
48836;DHT22;62581;47.342;7.908;2022-08-02T05:52:48;21.60;99.90
48836;DHT22;62581;47.342;7.908;2022-08-02T05:55:17;21.60;99.90
48836;DHT22;62581;47.342;7.908;2022-08-02T05:57:51;21.70;99.90
48836;DHT22;62581;47.342;7.908;2022-08-02T06:00:19;21.70;99.90
48836;DHT22;62581;47.342;7.908;2022-08-02T06:03:08;21.70;99.90
48836;DHT22;62581;47.342;7.908;2022-08-02T06:05:48;21.80;99.90
48836;DHT22;62581;47.342;7.908;2022-08-02T06:08:15;21.80;99.90
48836;DHT22;62581;47.342;7.908;2022-08-02T06:10:44;21.80;99.90
48836;DHT22;62581;47.342;7.908;2022-08-02T06:13:13;21.90;99.90
48836;DHT22;62581;47.342;7.908;2022-08-02T06:15:41;21.90;99.90
48836;DHT22;62581;47.342;7.908;2022-08-02T06:18:09;22.00;99.90
48836;DHT22;62581;47.342;7.908;2022-08-02T06:20:36;21.90;99.90
48836;DHT22;62581;47.342;7.908;2022-08-02T06:23:05;22.00;99.90
48836;DHT22;62581;47.342;7.908;2022-08-02T06:25:34;22.00;99.90
48836;DHT22;62581;47.342;7.908;2022-08-02T06:28:04;22.00;99.90
48836;DHT22;62581;47.342;7.908;2022-08-02T06:30:33;22.00;99.90
48836;DHT22;62581;47.342;7.908;2022-08-02T06:33:00;22.10;99.90
48836;DHT22;62581;47.342;7.908;2022-08-02T06:35:32;22.10;99.90
48836;DHT22;62581;47.342;7.908;2022-08-02T06:38:00;22.20;99.90
48836;DHT22;62581;47.342;7.908;2022-08-02T06:40:30;22.30;99.90
48836;DHT22;62581;47.342;7.908;2022-08-02T06:43:07;22.30;99.90
48836;DHT22;62581;47.342;7.908;2022-08-02T06:45:38;22.40;99.90
48836;DHT22;62581;47.342;7.908;2022-08-02T06:48:05;22.50;99.90
48836;DHT22;62581;47.342;7.908;2022-08-02T06:50:33;22.60;99.90
48836;DHT22;62581;47.342;7.908;2022-08-02T06:53:02;22.70;99.90
48836;DHT22;62581;47.342;7.908;2022-08-02T06:55:29;22.80;99.90
48836;DHT22;62581;47.342;7.908;2022-08-02T06:57:56;23.00;99.90
48836;DHT22;62581;47.342;7.908;2022-08-02T07:00:23;23.10;99.90
48836;DHT22;62581;47.342;7.908;2022-08-02T07:02:52;23.20;99.90
48836;DHT22;62581;47.342;7.908;2022-08-02T07:05:19;23.30;99.90
48836;DHT22;62581;47.342;7.908;2022-08-02T07:07:46;23.40;99.90
48836;DHT22;62581;47.342;7.908;2022-08-02T07:10:14;23.50;99.90
48836;DHT22;62581;47.342;7.908;2022-08-02T07:12:41;23.50;99.90
48836;DHT22;62581;47.342;7.908;2022-08-02T07:15:08;23.50;99.90
48836;DHT22;62581;47.342;7.908;2022-08-02T07:17:37;23.50;99.90
48836;DHT22;62581;47.342;7.908;2022-08-02T07:20:06;23.50;99.90
48836;DHT22;62581;47.342;7.908;2022-08-02T07:22:34;23.50;99.90
48836;DHT22;62581;47.342;7.908;2022-08-02T07:25:01;23.40;99.90
48836;DHT22;62581;47.342;7.908;2022-08-02T07:27:28;23.40;99.90
48836;DHT22;62581;47.342;7.908;2022-08-02T07:29:56;23.50;99.90
48836;DHT22;62581;47.342;7.908;2022-08-02T07:32:24;23.50;99.90
48836;DHT22;62581;47.342;7.908;2022-08-02T07:34:53;23.50;99.90
48836;DHT22;62581;47.342;7.908;2022-08-02T07:37:23;23.50;99.90
48836;DHT22;62581;47.342;7.908;2022-08-02T07:39:50;23.50;99.90
48836;DHT22;62581;47.342;7.908;2022-08-02T07:42:17;23.50;99.90
48836;DHT22;62581;47.342;7.908;2022-08-02T07:44:44;23.50;99.90
48836;DHT22;62581;47.342;7.908;2022-08-02T07:47:11;23.60;99.90
48836;DHT22;62581;47.342;7.908;2022-08-02T07:49:38;23.60;99.90
48836;DHT22;62581;47.342;7.908;2022-08-02T07:52:05;23.70;99.90
48836;DHT22;62581;47.342;7.908;2022-08-02T07:54:33;23.70;99.90
48836;DHT22;62581;47.342;7.908;2022-08-02T07:57:00;23.80;99.90
48836;DHT22;62581;47.342;7.908;2022-08-02T07:59:27;23.80;99.90
48836;DHT22;62581;47.342;7.908;2022-08-02T08:01:55;23.90;99.90
48836;DHT22;62581;47.342;7.908;2022-08-02T08:04:21;24.00;99.90
48836;DHT22;62581;47.342;7.908;2022-08-02T08:06:48;24.00;99.90
48836;DHT22;62581;47.342;7.908;2022-08-02T08:09:17;24.10;99.90
48836;DHT22;62581;47.342;7.908;2022-08-02T08:11:46;24.10;99.90
48836;DHT22;62581;47.342;7.908;2022-08-02T08:14:13;24.20;99.90
48836;DHT22;62581;47.342;7.908;2022-08-02T08:16:40;24.20;99.90
48836;DHT22;62581;47.342;7.908;2022-08-02T08:19:07;24.30;99.90
48836;DHT22;62581;47.342;7.908;2022-08-02T08:21:34;24.30;99.90
48836;DHT22;62581;47.342;7.908;2022-08-02T08:24:01;24.40;99.90
48836;DHT22;62581;47.342;7.908;2022-08-02T08:26:29;24.40;99.90
48836;DHT22;62581;47.342;7.908;2022-08-02T08:28:59;24.50;99.90
48836;DHT22;62581;47.342;7.908;2022-08-02T08:31:26;24.50;99.90
48836;DHT22;62581;47.342;7.908;2022-08-02T08:33:53;24.50;99.90
48836;DHT22;62581;47.342;7.908;2022-08-02T08:36:21;24.60;99.90
48836;DHT22;62581;47.342;7.908;2022-08-02T08:38:48;24.70;99.90
48836;DHT22;62581;47.342;7.908;2022-08-02T08:41:16;24.70;99.90
48836;DHT22;62581;47.342;7.908;2022-08-02T08:43:44;24.80;99.90
48836;DHT22;62581;47.342;7.908;2022-08-02T08:46:19;24.90;99.90
48836;DHT22;62581;47.342;7.908;2022-08-02T08:48:51;25.00;99.90
48836;DHT22;62581;47.342;7.908;2022-08-02T08:51:20;25.10;99.90
48836;DHT22;62581;47.342;7.908;2022-08-02T08:53:47;25.20;99.90
48836;DHT22;62581;47.342;7.908;2022-08-02T08:56:15;25.30;99.90
48836;DHT22;62581;47.342;7.908;2022-08-02T08:58:43;25.50;99.90
48836;DHT22;62581;47.342;7.908;2022-08-02T09:01:13;25.70;99.90
48836;DHT22;62581;47.342;7.908;2022-08-02T09:03:41;25.90;99.90
48836;DHT22;62581;47.342;7.908;2022-08-02T09:06:08;26.10;99.90
48836;DHT22;62581;47.342;7.908;2022-08-02T09:08:35;26.40;99.90
48836;DHT22;62581;47.342;7.908;2022-08-02T09:11:11;26.70;99.90
48836;DHT22;62581;47.342;7.908;2022-08-02T09:13:48;27.00;99.90
48836;DHT22;62581;47.342;7.908;2022-08-02T09:16:29;27.20;99.90
48836;DHT22;62581;47.342;7.908;2022-08-02T09:18:57;27.40;99.90
48836;DHT22;62581;47.342;7.908;2022-08-02T09:21:33;27.50;99.90
48836;DHT22;62581;47.342;7.908;2022-08-02T09:24:01;27.50;99.90
48836;DHT22;62581;47.342;7.908;2022-08-02T09:26:28;27.60;99.90
48836;DHT22;62581;47.342;7.908;2022-08-02T09:29:00;27.70;99.90
48836;DHT22;62581;47.342;7.908;2022-08-02T09:31:28;27.80;99.90
48836;DHT22;62581;47.342;7.908;2022-08-02T09:34:00;28.00;99.90
48836;DHT22;62581;47.342;7.908;2022-08-02T09:36:36;28.10;99.90
48836;DHT22;62581;47.342;7.908;2022-08-02T09:39:04;28.20;99.90
48836;DHT22;62581;47.342;7.908;2022-08-02T09:41:32;28.20;99.90
48836;DHT22;62581;47.342;7.908;2022-08-02T09:44:02;28.20;99.90
48836;DHT22;62581;47.342;7.908;2022-08-02T09:46:32;28.20;99.90
48836;DHT22;62581;47.342;7.908;2022-08-02T09:49:02;28.20;99.90
48836;DHT22;62581;47.342;7.908;2022-08-02T09:51:30;28.10;99.90
48836;DHT22;62581;47.342;7.908;2022-08-02T09:54:00;28.00;99.90
48836;DHT22;62581;47.342;7.908;2022-08-02T09:56:27;27.90;99.90
48836;DHT22;62581;47.342;7.908;2022-08-02T09:58:54;27.70;99.90
48836;DHT22;62581;47.342;7.908;2022-08-02T10:01:31;27.50;99.90
48836;DHT22;62581;47.342;7.908;2022-08-02T10:04:00;27.50;99.90
48836;DHT22;62581;47.342;7.908;2022-08-02T10:06:27;27.40;99.90
48836;DHT22;62581;47.342;7.908;2022-08-02T10:08:55;27.30;99.90
48836;DHT22;62581;47.342;7.908;2022-08-02T10:11:23;27.30;99.90
48836;DHT22;62581;47.342;7.908;2022-08-02T10:13:50;27.40;99.90
48836;DHT22;62581;47.342;7.908;2022-08-02T10:16:19;27.40;99.90
48836;DHT22;62581;47.342;7.908;2022-08-02T10:18:50;27.50;99.90
48836;DHT22;62581;47.342;7.908;2022-08-02T10:21:21;27.70;99.90
48836;DHT22;62581;47.342;7.908;2022-08-02T10:23:49;27.90;99.90
48836;DHT22;62581;47.342;7.908;2022-08-02T10:26:17;28.20;99.70
48836;DHT22;62581;47.342;7.908;2022-08-02T10:28:48;28.30;99.30
48836;DHT22;62581;47.342;7.908;2022-08-02T10:31:19;28.40;98.90
48836;DHT22;62581;47.342;7.908;2022-08-02T10:33:49;28.40;98.40
48836;DHT22;62581;47.342;7.908;2022-08-02T10:36:18;28.40;97.90
48836;DHT22;62581;47.342;7.908;2022-08-02T10:38:46;28.30;98.10
48836;DHT22;62581;47.342;7.908;2022-08-02T10:41:13;28.20;97.50
48836;DHT22;62581;47.342;7.908;2022-08-02T10:43:42;28.20;96.70
48836;DHT22;62581;47.342;7.908;2022-08-02T10:46:30;28.20;96.80
48836;DHT22;62581;47.342;7.908;2022-08-02T10:49:08;28.40;96.80
48836;DHT22;62581;47.342;7.908;2022-08-02T10:54:49;28.60;96.30
48836;DHT22;62581;47.342;7.908;2022-08-02T10:57:19;28.70;96.50
48836;DHT22;62581;47.342;7.908;2022-08-02T10:59:47;28.80;95.80
48836;DHT22;62581;47.342;7.908;2022-08-02T11:02:33;28.90;95.60
48836;DHT22;62581;47.342;7.908;2022-08-02T11:05:05;29.00;95.30
48836;DHT22;62581;47.342;7.908;2022-08-02T11:07:35;29.20;95.00
48836;DHT22;62581;47.342;7.908;2022-08-02T11:10:31;29.30;94.80
48836;DHT22;62581;47.342;7.908;2022-08-02T11:13:08;29.50;94.40
48836;DHT22;62581;47.342;7.908;2022-08-02T11:15:59;29.60;94.30
48836;DHT22;62581;47.342;7.908;2022-08-02T11:19:00;29.70;93.70
48836;DHT22;62581;47.342;7.908;2022-08-02T11:21:29;29.80;93.50
48836;DHT22;62581;47.342;7.908;2022-08-02T11:24:23;30.00;92.50
48836;DHT22;62581;47.342;7.908;2022-08-02T11:26:52;30.00;92.40
48836;DHT22;62581;47.342;7.908;2022-08-02T11:29:19;30.10;93.10
48836;DHT22;62581;47.342;7.908;2022-08-02T11:31:47;30.20;92.90
48836;DHT22;62581;47.342;7.908;2022-08-02T11:34:15;30.40;92.40
48836;DHT22;62581;47.342;7.908;2022-08-02T11:36:49;30.50;92.10
48836;DHT22;62581;47.342;7.908;2022-08-02T11:39:18;30.60;92.70
48836;DHT22;62581;47.342;7.908;2022-08-02T11:41:49;30.70;92.20
48836;DHT22;62581;47.342;7.908;2022-08-02T11:44:17;30.50;92.10
48836;DHT22;62581;47.342;7.908;2022-08-02T11:46:44;29.80;93.00
48836;DHT22;62581;47.342;7.908;2022-08-02T11:49:18;29.60;92.90
48836;DHT22;62581;47.342;7.908;2022-08-02T11:51:58;29.60;92.60
48836;DHT22;62581;47.342;7.908;2022-08-02T11:54:30;29.40;92.40
48836;DHT22;62581;47.342;7.908;2022-08-02T11:57:16;29.30;93.20
48836;DHT22;62581;47.342;7.908;2022-08-02T11:59:45;29.40;93.10
48836;DHT22;62581;47.342;7.908;2022-08-02T12:02:11;29.50;93.40
48836;DHT22;62581;47.342;7.908;2022-08-02T12:04:39;29.60;92.60
48836;DHT22;62581;47.342;7.908;2022-08-02T12:07:08;29.70;92.60
48836;DHT22;62581;47.342;7.908;2022-08-02T12:09:35;29.70;91.90
48836;DHT22;62581;47.342;7.908;2022-08-02T12:12:03;29.70;92.20
48836;DHT22;62581;47.342;7.908;2022-08-02T12:14:31;29.80;91.70
48836;DHT22;62581;47.342;7.908;2022-08-02T12:16:59;30.00;91.90
48836;DHT22;62581;47.342;7.908;2022-08-02T12:19:43;30.20;91.80
48836;DHT22;62581;47.342;7.908;2022-08-02T12:22:14;30.50;90.90
48836;DHT22;62581;47.342;7.908;2022-08-02T12:24:45;30.80;90.40
48836;DHT22;62581;47.342;7.908;2022-08-02T12:27:30;31.10;90.20
48836;DHT22;62581;47.342;7.908;2022-08-02T12:29:59;31.30;90.10
48836;DHT22;62581;47.342;7.908;2022-08-02T12:32:28;31.30;89.00
48836;DHT22;62581;47.342;7.908;2022-08-02T12:35:07;31.40;88.80
48836;DHT22;62581;47.342;7.908;2022-08-02T12:37:37;31.50;88.20
48836;DHT22;62581;47.342;7.908;2022-08-02T12:40:18;31.50;87.80
48836;DHT22;62581;47.342;7.908;2022-08-02T12:42:46;31.50;87.40
48836;DHT22;62581;47.342;7.908;2022-08-02T12:45:13;31.60;87.20
48836;DHT22;62581;47.342;7.908;2022-08-02T12:47:45;31.90;87.20
48836;DHT22;62581;47.342;7.908;2022-08-02T12:50:15;32.30;85.00
48836;DHT22;62581;47.342;7.908;2022-08-02T12:52:44;32.70;84.90
48836;DHT22;62581;47.342;7.908;2022-08-02T12:55:15;33.50;82.70
48836;DHT22;62581;47.342;7.908;2022-08-02T12:57:54;34.10;80.00
48836;DHT22;62581;47.342;7.908;2022-08-02T13:00:23;34.60;78.90
48836;DHT22;62581;47.342;7.908;2022-08-02T13:02:50;35.30;76.10
48836;DHT22;62581;47.342;7.908;2022-08-02T13:05:18;36.30;73.90
48836;DHT22;62581;47.342;7.908;2022-08-02T13:07:46;37.30;71.50
48836;DHT22;62581;47.342;7.908;2022-08-02T13:10:13;37.80;69.00
48836;DHT22;62581;47.342;7.908;2022-08-02T13:12:41;37.40;69.00
48836;DHT22;62581;47.342;7.908;2022-08-02T13:15:08;37.40;69.00
48836;DHT22;62581;47.342;7.908;2022-08-02T13:17:36;38.00;67.00
48836;DHT22;62581;47.342;7.908;2022-08-02T13:20:04;39.10;65.60
48836;DHT22;62581;47.342;7.908;2022-08-02T13:22:31;39.80;62.90
48836;DHT22;62581;47.342;7.908;2022-08-02T13:24:59;40.50;59.50
48836;DHT22;62581;47.342;7.908;2022-08-02T13:27:27;41.00;58.30
48836;DHT22;62581;47.342;7.908;2022-08-02T13:29:55;41.10;57.00
48836;DHT22;62581;47.342;7.908;2022-08-02T13:32:23;41.40;56.60
48836;DHT22;62581;47.342;7.908;2022-08-02T13:34:51;41.70;56.50
48836;DHT22;62581;47.342;7.908;2022-08-02T13:37:18;42.00;55.10
48836;DHT22;62581;47.342;7.908;2022-08-02T13:39:45;42.40;54.70
48836;DHT22;62581;47.342;7.908;2022-08-02T13:42:14;42.90;53.50
48836;DHT22;62581;47.342;7.908;2022-08-02T13:44:41;43.70;51.90
48836;DHT22;62581;47.342;7.908;2022-08-02T13:47:08;44.40;50.50
48836;DHT22;62581;47.342;7.908;2022-08-02T13:49:36;44.10;49.90
48836;DHT22;62581;47.342;7.908;2022-08-02T13:52:04;43.90;49.10
48836;DHT22;62581;47.342;7.908;2022-08-02T13:54:31;43.50;49.90
48836;DHT22;62581;47.342;7.908;2022-08-02T13:56:58;43.30;49.60
48836;DHT22;62581;47.342;7.908;2022-08-02T13:59:26;44.00;49.20
48836;DHT22;62581;47.342;7.908;2022-08-02T14:01:53;44.90;48.00
48836;DHT22;62581;47.342;7.908;2022-08-02T14:04:21;46.00;45.80
48836;DHT22;62581;47.342;7.908;2022-08-02T14:06:48;46.10;45.50
48836;DHT22;62581;47.342;7.908;2022-08-02T14:09:15;46.60;44.90
48836;DHT22;62581;47.342;7.908;2022-08-02T14:11:42;47.70;44.70
48836;DHT22;62581;47.342;7.908;2022-08-02T14:14:09;49.10;43.60
48836;DHT22;62581;47.342;7.908;2022-08-02T14:16:38;47.90;42.50
48836;DHT22;62581;47.342;7.908;2022-08-02T14:19:05;46.30;43.30
48836;DHT22;62581;47.342;7.908;2022-08-02T14:21:33;45.40;44.50
48836;DHT22;62581;47.342;7.908;2022-08-02T14:24:00;45.90;44.70
48836;DHT22;62581;47.342;7.908;2022-08-02T14:26:27;46.90;43.90
48836;DHT22;62581;47.342;7.908;2022-08-02T14:28:55;47.60;43.10
48836;DHT22;62581;47.342;7.908;2022-08-02T14:31:22;47.80;41.90
48836;DHT22;62581;47.342;7.908;2022-08-02T14:33:50;46.60;43.10
48836;DHT22;62581;47.342;7.908;2022-08-02T14:36:17;46.60;43.20
48836;DHT22;62581;47.342;7.908;2022-08-02T14:38:44;47.00;43.20
48836;DHT22;62581;47.342;7.908;2022-08-02T14:41:10;46.20;43.10
48836;DHT22;62581;47.342;7.908;2022-08-02T14:43:37;45.60;44.10
48836;DHT22;62581;47.342;7.908;2022-08-02T14:46:22;46.80;43.20
48836;DHT22;62581;47.342;7.908;2022-08-02T14:48:50;46.80;41.90
48836;DHT22;62581;47.342;7.908;2022-08-02T14:51:17;46.30;42.50
48836;DHT22;62581;47.342;7.908;2022-08-02T14:53:44;45.40;42.70
48836;DHT22;62581;47.342;7.908;2022-08-02T14:56:11;44.90;43.40
48836;DHT22;62581;47.342;7.908;2022-08-02T14:58:38;43.80;44.30
48836;DHT22;62581;47.342;7.908;2022-08-02T15:01:05;44.30;43.90
48836;DHT22;62581;47.342;7.908;2022-08-02T15:03:32;44.70;44.40
48836;DHT22;62581;47.342;7.908;2022-08-02T15:06:00;45.60;43.00
48836;DHT22;62581;47.342;7.908;2022-08-02T15:08:27;46.80;42.20
48836;DHT22;62581;47.342;7.908;2022-08-02T15:10:54;47.30;41.50
48836;DHT22;62581;47.342;7.908;2022-08-02T15:13:21;46.90;41.30
48836;DHT22;62581;47.342;7.908;2022-08-02T15:15:48;46.00;42.00
48836;DHT22;62581;47.342;7.908;2022-08-02T15:18:15;45.50;42.60
48836;DHT22;62581;47.342;7.908;2022-08-02T15:20:42;45.40;42.80
48836;DHT22;62581;47.342;7.908;2022-08-02T15:23:12;45.00;42.90
48836;DHT22;62581;47.342;7.908;2022-08-02T15:25:39;46.00;42.20
48836;DHT22;62581;47.342;7.908;2022-08-02T15:28:07;47.30;41.90
48836;DHT22;62581;47.342;7.908;2022-08-02T15:30:35;49.20;39.70
48836;DHT22;62581;47.342;7.908;2022-08-02T15:33:02;49.50;38.80
48836;DHT22;62581;47.342;7.908;2022-08-02T15:35:30;49.60;38.20
48836;DHT22;62581;47.342;7.908;2022-08-02T15:37:57;49.20;38.90
48836;DHT22;62581;47.342;7.908;2022-08-02T15:40:26;49.40;38.40
48836;DHT22;62581;47.342;7.908;2022-08-02T15:42:53;49.70;38.40
48836;DHT22;62581;47.342;7.908;2022-08-02T15:45:20;49.90;37.90